createdAt,value
2017-12-04T00:02:19.960Z,92.98
2017-12-04T00:04:45.787Z,93.44
2017-12-04T00:07:11.959Z,93.62
2017-12-04T00:09:37.789Z,94.04
2017-12-04T00:12:03.905Z,93.93
2017-12-04T00:14:29.900Z,94.05
2017-12-04T00:16:55.720Z,93.54
2017-12-04T00:19:21.532Z,93.44
2017-12-04T00:21:47.870Z,93.52
2017-12-04T00:24:14.596Z,93.56
2017-12-04T00:26:40.404Z,93.27
2017-12-04T00:29:07.007Z,93.41
2017-12-04T00:31:32.798Z,92.75
2017-12-04T00:33:58.579Z,92.13
2017-12-04T00:36:24.738Z,91.16
2017-12-04T00:38:50.550Z,90.94
2017-12-04T00:41:16.337Z,90.85
2017-12-04T00:43:42.133Z,89.46
2017-12-04T00:46:07.945Z,89.40
2017-12-04T00:48:33.730Z,89.08
2017-12-04T00:50:59.542Z,86.94
2017-12-04T00:53:25.330Z,86.78
2017-12-04T00:55:51.139Z,87.06
2017-12-04T00:58:16.967Z,87.22
2017-12-04T01:00:42.784Z,85.64
2017-12-04T01:03:08.578Z,86.20
2017-12-04T01:05:34.393Z,85.42
2017-12-04T01:08:00.206Z,86.04
2017-12-04T01:10:25.984Z,85.31
2017-12-04T01:12:51.788Z,84.11
2017-12-04T01:15:17.571Z,85.41
2017-12-04T01:17:43.388Z,84.42
2017-12-04T01:20:09.172Z,83.62
2017-12-04T01:22:34.951Z,84.30
2017-12-04T01:25:00.760Z,84.02
2017-12-04T01:27:26.556Z,84.23
2017-12-04T01:29:52.347Z,84.23
2017-12-04T01:32:18.180Z,84.52
2017-12-04T01:34:43.980Z,84.16
2017-12-04T01:37:09.755Z,83.47
2017-12-04T01:39:35.548Z,83.25
2017-12-04T01:42:01.370Z,84.22
2017-12-04T01:44:27.179Z,84.54
2017-12-04T01:46:52.982Z,85.55
2017-12-04T01:49:18.760Z,86.23
2017-12-04T01:51:44.588Z,85.91
2017-12-04T01:54:10.405Z,87.03
2017-12-04T01:56:36.181Z,86.48
2017-12-04T01:59:02.259Z,86.63
2017-12-04T02:01:28.072Z,87.06
2017-12-04T02:03:53.867Z,86.82
2017-12-04T02:06:19.674Z,86.84
2017-12-04T02:08:45.480Z,87.35
2017-12-04T02:11:11.265Z,87.48
2017-12-04T02:13:37.072Z,87.18
2017-12-04T02:16:02.897Z,87.07
2017-12-04T02:18:28.715Z,86.58
2017-12-04T02:20:54.514Z,86.45
2017-12-04T02:23:20.319Z,87.45
2017-12-04T02:25:46.220Z,87.01
2017-12-04T02:28:12.007Z,86.90
2017-12-04T02:30:37.792Z,87.19
2017-12-04T02:33:03.621Z,86.90
2017-12-04T02:35:29.439Z,86.54
2017-12-04T02:37:55.257Z,87.49
2017-12-04T02:40:21.334Z,86.21
2017-12-04T02:42:47.160Z,86.58
2017-12-04T02:45:12.971Z,86.60
2017-12-04T02:47:39.656Z,86.44
2017-12-04T02:50:05.454Z,87.55
2017-12-04T02:52:31.263Z,87.65
2017-12-04T02:54:57.171Z,87.54
2017-12-04T02:57:22.994Z,87.56
2017-12-04T02:59:48.803Z,87.60
2017-12-04T03:04:47.634Z,87.29
2017-12-04T03:07:13.412Z,87.64
2017-12-04T03:09:39.187Z,88.15
2017-12-04T03:12:04.992Z,87.94
2017-12-04T03:14:30.776Z,88.07
2017-12-04T03:16:56.572Z,88.07
2017-12-04T03:19:22.378Z,88.30
2017-12-04T03:21:48.177Z,88.12
2017-12-04T03:24:14.072Z,87.73
2017-12-04T03:26:39.886Z,88.03
2017-12-04T03:29:05.687Z,87.78
2017-12-04T03:31:31.490Z,87.98
2017-12-04T03:33:57.317Z,88.15
2017-12-04T03:36:23.149Z,88.10
2017-12-04T03:38:48.940Z,88.68
2017-12-04T03:41:14.752Z,88.19
2017-12-04T03:43:40.566Z,88.40
2017-12-04T03:46:06.383Z,88.43
2017-12-04T03:48:32.176Z,88.38
2017-12-04T03:50:57.960Z,88.26
2017-12-04T03:53:23.762Z,88.19
2017-12-04T03:55:49.568Z,87.36
2017-12-04T03:58:15.374Z,87.44
2017-12-04T04:00:41.294Z,87.26
2017-12-04T04:03:07.101Z,87.48
2017-12-04T04:05:32.904Z,87.39
2017-12-04T04:07:58.713Z,86.85
2017-12-04T04:10:24.521Z,87.10
2017-12-04T04:12:50.311Z,86.69
2017-12-04T04:15:16.198Z,86.68
2017-12-04T04:17:42.008Z,86.47
2017-12-04T04:20:07.807Z,86.83
2017-12-04T04:22:33.638Z,87.33
2017-12-04T04:24:59.478Z,87.47
2017-12-04T04:27:25.569Z,87.41
2017-12-04T04:29:51.343Z,86.42
2017-12-04T04:32:17.139Z,86.75
2017-12-04T04:34:44.041Z,87.14
2017-12-04T04:37:09.831Z,87.51
2017-12-04T04:39:35.619Z,87.77
2017-12-04T04:42:01.474Z,87.07
2017-12-04T04:44:27.281Z,87.08
2017-12-04T04:46:53.069Z,87.07
2017-12-04T04:49:18.902Z,86.76
2017-12-04T04:51:44.738Z,86.61
2017-12-04T04:54:10.574Z,85.86
2017-12-04T04:56:36.399Z,86.41
2017-12-04T04:59:02.235Z,87.27
2017-12-04T05:01:28.059Z,86.61
2017-12-04T05:03:54.726Z,86.71
2017-12-04T05:06:20.586Z,86.51
2017-12-04T05:08:46.387Z,86.51
2017-12-04T05:11:13.020Z,86.56
2017-12-04T05:13:39.693Z,85.79
2017-12-04T05:16:06.656Z,86.35
2017-12-04T05:18:33.377Z,86.23
2017-12-04T05:21:00.076Z,86.13
2017-12-04T05:23:25.964Z,85.61
2017-12-04T05:25:52.167Z,86.00
2017-12-04T05:28:17.954Z,85.50
2017-12-04T05:30:43.752Z,86.51
2017-12-04T05:33:09.559Z,84.88
2017-12-04T05:35:35.367Z,84.39
2017-12-04T05:38:01.153Z,85.42
2017-12-04T05:40:26.991Z,83.80
2017-12-04T05:42:52.774Z,84.13
2017-12-04T05:45:18.590Z,84.33
2017-12-04T05:47:44.722Z,84.75
2017-12-04T05:50:10.522Z,84.88
2017-12-04T05:52:36.330Z,85.06
2017-12-04T05:55:02.176Z,84.93
2017-12-04T05:57:27.998Z,84.98
2017-12-04T05:59:53.792Z,85.18
2017-12-04T06:02:20.415Z,85.07
2017-12-04T06:04:46.206Z,83.97
2017-12-04T06:07:11.979Z,84.48
2017-12-04T06:09:38.028Z,84.29
2017-12-04T06:12:03.822Z,83.53
2017-12-04T06:14:29.594Z,83.50
2017-12-04T06:16:55.410Z,83.50
2017-12-04T06:19:21.251Z,83.89
2017-12-04T06:21:47.040Z,82.28
2017-12-04T06:24:12.829Z,82.50
2017-12-04T06:26:38.605Z,83.53
2017-12-04T06:29:04.399Z,83.66
2017-12-04T06:31:30.207Z,83.35
2017-12-04T06:33:55.982Z,84.31
2017-12-04T06:36:21.763Z,84.52
2017-12-04T06:38:47.575Z,84.63
2017-12-04T06:41:13.358Z,85.13
2017-12-04T06:43:39.142Z,85.53
2017-12-04T06:46:04.947Z,85.21
2017-12-04T06:48:30.812Z,84.93
2017-12-04T06:50:56.663Z,85.24
2017-12-04T06:53:22.480Z,85.07
2017-12-04T06:55:48.314Z,84.20
2017-12-04T06:58:14.098Z,83.90
2017-12-04T07:00:40.062Z,83.75
2017-12-04T07:03:05.850Z,84.02
2017-12-04T07:05:31.628Z,83.58
2017-12-04T07:07:57.653Z,83.74
2017-12-04T07:10:23.436Z,82.88
2017-12-04T07:12:49.224Z,83.63
2017-12-04T07:15:15.020Z,83.36
2017-12-04T07:17:41.073Z,83.88
2017-12-04T07:20:06.864Z,84.06
2017-12-04T07:22:32.679Z,83.87
2017-12-04T07:24:58.491Z,83.68
2017-12-04T07:27:24.462Z,84.71
2017-12-04T07:29:50.249Z,83.91
2017-12-04T07:32:16.031Z,84.65
2017-12-04T07:34:41.857Z,84.54
2017-12-04T07:37:07.644Z,84.23
2017-12-04T07:39:33.435Z,83.77
2017-12-04T07:41:59.226Z,83.95
2017-12-04T07:44:25.005Z,83.36
2017-12-04T07:46:50.815Z,83.26
2017-12-04T07:49:16.977Z,83.40
2017-12-04T07:51:42.758Z,83.96
2017-12-04T07:54:08.550Z,83.43
2017-12-04T07:56:34.343Z,82.61
2017-12-04T07:59:00.127Z,83.00
2017-12-04T08:01:26.043Z,81.63
2017-12-04T08:03:51.851Z,81.83
2017-12-04T08:06:18.033Z,81.96
2017-12-04T08:08:43.862Z,81.22
2017-12-04T08:11:09.662Z,80.96
2017-12-04T08:13:35.459Z,81.17
2017-12-04T08:16:01.567Z,80.34
2017-12-04T08:18:27.358Z,80.31
2017-12-04T08:20:53.167Z,80.33
2017-12-04T08:23:19.375Z,80.76
2017-12-04T08:25:46.025Z,80.81
2017-12-04T08:28:12.724Z,81.24
2017-12-04T08:30:39.610Z,81.67
2017-12-04T08:33:06.444Z,80.68
2017-12-04T08:35:34.577Z,80.88
2017-12-04T08:38:00.806Z,81.06
2017-12-04T08:40:27.168Z,80.31
2017-12-04T08:42:53.291Z,80.84
2017-12-04T08:45:19.873Z,80.20
2017-12-04T08:47:45.677Z,80.40
2017-12-04T08:50:11.481Z,80.75
2017-12-04T08:52:37.532Z,80.42
2017-12-04T08:55:03.395Z,80.26
2017-12-04T08:57:29.189Z,79.73
2017-12-04T08:59:55.457Z,79.97
2017-12-04T09:02:21.302Z,80.01
2017-12-04T09:04:47.242Z,80.39
2017-12-04T09:07:13.484Z,79.65
2017-12-04T09:09:39.544Z,79.52
2017-12-04T09:12:05.473Z,79.07
2017-12-04T09:14:31.273Z,78.31
2017-12-04T09:16:57.733Z,78.52
2017-12-04T09:19:23.587Z,78.25
2017-12-04T09:21:49.397Z,77.52
2017-12-04T09:24:15.371Z,79.12
2017-12-04T09:26:42.421Z,77.92
2017-12-04T09:29:08.537Z,78.36
2017-12-04T09:31:34.437Z,77.15
2017-12-04T09:34:00.390Z,77.48
2017-12-04T09:36:26.234Z,78.42
2017-12-04T09:38:51.982Z,78.81
2017-12-04T09:41:18.549Z,77.93
2017-12-04T09:43:44.412Z,77.93
2017-12-04T09:46:11.219Z,78.83
2017-12-04T09:48:37.106Z,78.49
2017-12-04T09:51:03.356Z,78.49
2017-12-04T09:53:29.226Z,77.96
2017-12-04T09:55:55.595Z,77.71
2017-12-04T09:58:22.232Z,77.34
2017-12-04T10:00:49.453Z,77.45
2017-12-04T10:03:16.035Z,76.05
2017-12-04T10:05:42.808Z,76.51
2017-12-04T10:08:09.552Z,76.00
2017-12-04T10:10:36.385Z,76.56
2017-12-04T10:13:03.007Z,75.96
2017-12-04T10:15:29.832Z,76.69
2017-12-04T10:17:56.803Z,78.14
2017-12-04T10:20:22.704Z,76.78
2017-12-04T10:22:48.528Z,76.50
2017-12-04T10:25:14.874Z,76.54
2017-12-04T10:27:40.690Z,75.82
2017-12-04T10:30:06.508Z,76.07
2017-12-04T10:32:32.352Z,76.56
2017-12-04T10:34:58.163Z,76.04
2017-12-04T10:37:24.009Z,76.43
2017-12-04T10:42:17.384Z,76.07
2017-12-04T10:44:44.312Z,76.54
2017-12-04T10:47:10.850Z,76.43
2017-12-04T10:49:36.724Z,76.79
2017-12-04T10:52:02.543Z,77.03
2017-12-04T10:54:28.584Z,76.05
2017-12-04T10:56:54.499Z,78.18
2017-12-04T10:59:20.321Z,77.05
2017-12-04T11:01:46.424Z,76.96
2017-12-04T11:04:12.339Z,77.42
2017-12-04T11:06:38.196Z,75.85
2017-12-04T11:09:05.402Z,76.44
2017-12-04T11:11:31.855Z,76.11
2017-12-04T11:13:57.973Z,76.20
2017-12-04T11:16:23.775Z,75.48
2017-12-04T11:18:50.256Z,75.69
2017-12-04T11:21:17.071Z,75.52
2017-12-04T11:23:43.002Z,74.61
2017-12-04T11:26:09.391Z,75.34
2017-12-04T11:28:35.362Z,73.66
2017-12-04T11:31:01.183Z,73.74
2017-12-04T11:33:27.175Z,73.42
2017-12-04T11:35:53.514Z,73.34
2017-12-04T11:38:19.523Z,73.41
2017-12-04T11:40:45.364Z,73.29
2017-12-04T11:43:11.420Z,72.80
2017-12-04T11:45:38.015Z,72.49
2017-12-04T11:48:05.249Z,72.58
2017-12-04T11:50:31.496Z,73.00
2017-12-04T11:52:57.483Z,73.52
2017-12-04T11:55:23.317Z,72.21
2017-12-04T11:57:49.965Z,72.75
2017-12-04T12:00:16.505Z,72.83
2017-12-04T12:02:42.733Z,72.36
2017-12-04T12:05:08.613Z,72.56
2017-12-04T12:07:34.431Z,72.35
2017-12-04T12:10:00.310Z,72.38
2017-12-04T12:12:27.363Z,72.58
2017-12-04T12:14:53.674Z,72.00
2017-12-04T12:17:19.673Z,71.91
2017-12-04T12:19:45.520Z,71.88
2017-12-04T12:22:12.052Z,71.74
2017-12-04T12:24:37.890Z,69.89
2017-12-04T12:27:04.781Z,70.95
2017-12-04T12:29:31.431Z,70.26
2017-12-04T12:31:58.757Z,69.50
2017-12-04T12:34:25.252Z,69.84
2017-12-04T12:36:51.284Z,68.85
2017-12-04T12:39:17.859Z,69.30
2017-12-04T12:41:43.669Z,69.53
2017-12-04T12:44:09.491Z,68.62
2017-12-04T12:46:35.704Z,68.25
2017-12-04T12:49:02.363Z,68.22
2017-12-04T12:51:29.074Z,68.28
2017-12-04T12:53:55.869Z,67.82
2017-12-04T12:56:22.288Z,67.39
2017-12-04T12:58:48.616Z,66.94
2017-12-04T13:01:14.471Z,66.72
2017-12-04T13:03:41.163Z,65.82
2017-12-04T13:06:08.242Z,66.75
2017-12-04T13:08:34.926Z,66.85
2017-12-04T13:11:00.996Z,66.94
2017-12-04T13:13:27.372Z,66.55
2017-12-04T13:15:53.188Z,67.06
2017-12-04T13:18:19.975Z,67.63
2017-12-04T13:20:46.101Z,68.39
2017-12-04T13:23:11.952Z,68.13
2017-12-04T13:25:38.682Z,68.84
2017-12-04T13:28:05.943Z,69.52
2017-12-04T13:30:33.017Z,70.03
2017-12-04T13:33:12.220Z,71.31
2017-12-04T13:35:51.483Z,71.45
2017-12-04T13:38:17.672Z,72.38
2017-12-04T13:40:44.310Z,72.98
2017-12-04T13:43:10.126Z,73.67
2017-12-04T13:45:35.958Z,73.71
2017-12-04T13:48:02.395Z,73.61
2017-12-04T13:50:29.155Z,73.90
2017-12-04T13:52:56.074Z,74.26
2017-12-04T13:55:22.971Z,74.69
2017-12-04T13:57:49.144Z,74.49
2017-12-04T14:00:15.105Z,75.20
2017-12-04T14:02:41.900Z,75.22
2017-12-04T14:05:08.020Z,75.70
2017-12-04T14:07:35.094Z,76.45
2017-12-04T14:10:01.428Z,76.19
2017-12-04T14:12:27.404Z,75.65
2017-12-04T14:14:54.188Z,75.72
2017-12-04T14:17:21.033Z,75.06
2017-12-04T14:19:47.079Z,75.81
2017-12-04T14:22:12.998Z,75.90
2017-12-04T14:24:38.872Z,76.15
2017-12-04T14:27:04.925Z,75.83
2017-12-04T14:29:30.812Z,76.25
2017-12-04T14:31:56.612Z,75.77
2017-12-04T14:34:22.666Z,75.70
2017-12-04T14:36:48.556Z,75.93
2017-12-04T14:39:14.563Z,75.28
2017-12-04T14:41:40.589Z,75.22
2017-12-04T14:44:08.046Z,75.35
2017-12-04T14:46:33.920Z,75.57
2017-12-04T14:48:59.751Z,75.98
2017-12-04T14:51:25.620Z,76.04
2017-12-04T14:53:51.452Z,75.82
2017-12-04T14:56:18.095Z,76.03
2017-12-04T14:58:44.524Z,76.29
2017-12-04T15:01:10.336Z,75.99
2017-12-04T15:03:36.147Z,76.42
2017-12-04T15:06:02.187Z,76.22
2017-12-04T15:08:28.009Z,76.33
2017-12-04T15:10:53.827Z,76.89
2017-12-04T15:13:19.830Z,76.38
2017-12-04T15:15:45.658Z,76.66
2017-12-04T15:18:11.476Z,76.55
2017-12-04T15:20:37.327Z,76.04
2017-12-04T15:23:03.141Z,76.09
2017-12-04T15:25:28.943Z,75.97
2017-12-04T15:27:54.940Z,76.25
2017-12-04T15:30:20.757Z,76.51
2017-12-04T15:32:46.550Z,76.05
2017-12-04T15:35:12.375Z,76.70
2017-12-04T15:37:38.188Z,76.39
2017-12-04T15:40:04.004Z,75.95
2017-12-04T15:42:29.834Z,76.26
2017-12-04T15:44:55.651Z,75.82
2017-12-04T15:47:21.449Z,75.97
2017-12-04T15:49:47.278Z,76.41
2017-12-04T15:52:13.070Z,76.69
2017-12-04T15:54:38.877Z,76.95
2017-12-04T15:57:04.978Z,77.60
2017-12-04T15:59:30.797Z,77.38
2017-12-04T16:01:56.604Z,78.09
2017-12-04T16:04:22.452Z,77.70
2017-12-04T16:06:48.263Z,77.94
2017-12-04T16:09:14.075Z,78.32
2017-12-04T16:11:39.901Z,78.11
2017-12-04T16:14:05.710Z,78.14
2017-12-04T16:16:31.510Z,78.11
2017-12-04T16:18:57.556Z,78.31
2017-12-04T16:21:23.371Z,78.39
2017-12-04T16:23:49.164Z,78.40
2017-12-04T16:26:16.136Z,77.74
2017-12-04T16:28:41.934Z,78.50
2017-12-04T16:31:07.749Z,78.49
2017-12-04T16:33:33.584Z,79.19
2017-12-04T16:35:59.413Z,78.93
2017-12-04T16:38:25.226Z,79.56
2017-12-04T16:40:51.063Z,79.83
2017-12-04T16:43:16.887Z,79.51
2017-12-04T16:45:42.691Z,79.84
2017-12-04T16:48:08.495Z,80.19
2017-12-04T16:50:34.312Z,80.20
2017-12-04T16:53:00.102Z,80.31
2017-12-04T16:55:25.939Z,80.34
2017-12-04T16:57:51.715Z,80.31
2017-12-04T17:00:17.596Z,80.64
2017-12-04T17:02:43.415Z,80.69
2017-12-04T17:05:09.239Z,81.38
2017-12-04T17:07:35.099Z,81.05
2017-12-04T17:10:00.945Z,80.89
2017-12-04T17:12:26.743Z,81.48
2017-12-04T17:14:52.800Z,81.62
2017-12-04T17:17:18.646Z,82.09
2017-12-04T17:19:44.509Z,82.12
2017-12-04T17:22:10.314Z,82.79
2017-12-04T17:24:36.104Z,82.93
2017-12-04T17:27:02.213Z,82.75
2017-12-04T17:29:28.022Z,83.21
2017-12-04T17:31:53.837Z,83.69
2017-12-04T17:34:19.644Z,83.27
2017-12-04T17:36:45.450Z,83.52
2017-12-04T17:39:11.252Z,84.07
2017-12-04T17:41:37.091Z,83.49
2017-12-04T17:44:02.883Z,83.59
2017-12-04T17:46:28.718Z,83.63
2017-12-04T17:48:54.535Z,83.38
2017-12-04T17:51:20.336Z,83.76
2017-12-04T17:53:46.200Z,83.49
2017-12-04T17:56:12.002Z,84.03
2017-12-04T17:58:37.800Z,83.79
2017-12-04T18:01:03.646Z,83.70
2017-12-04T18:03:29.480Z,84.11
2017-12-04T18:05:55.307Z,83.44
2017-12-04T18:08:21.144Z,83.97
2017-12-04T18:10:46.952Z,84.23
2017-12-04T18:13:12.755Z,85.01
2017-12-04T18:15:38.693Z,85.31
2017-12-04T18:18:04.505Z,85.69
2017-12-04T18:20:30.309Z,85.92
2017-12-04T18:22:56.388Z,86.33
2017-12-04T18:25:22.187Z,86.88
2017-12-04T18:27:47.995Z,86.86
2017-12-04T18:30:13.820Z,86.88
2017-12-04T18:32:39.634Z,87.34
2017-12-04T18:35:05.469Z,87.57
2017-12-04T18:37:31.306Z,87.68
2017-12-04T18:39:57.124Z,87.67
2017-12-04T18:42:22.939Z,87.80
2017-12-04T18:44:48.858Z,87.58
2017-12-04T18:47:14.674Z,87.78
2017-12-04T18:49:40.500Z,87.78
2017-12-04T18:52:06.337Z,87.88
2017-12-04T18:54:32.157Z,87.71
2017-12-04T18:56:57.946Z,87.98
2017-12-04T18:59:23.843Z,87.86
2017-12-04T19:01:49.647Z,87.68
2017-12-04T19:04:15.468Z,87.79
2017-12-04T19:06:41.300Z,87.96
2017-12-04T19:09:07.121Z,88.19
2017-12-04T19:11:33.194Z,88.15
2017-12-04T19:13:59.336Z,88.11
2017-12-04T19:16:25.953Z,88.28
2017-12-04T19:18:51.777Z,88.54
2017-12-04T19:21:17.771Z,88.56
2017-12-04T19:23:43.584Z,88.53
2017-12-04T19:26:09.396Z,88.70
2017-12-04T19:28:35.569Z,88.52
2017-12-04T19:31:01.379Z,88.58
2017-12-04T19:33:27.179Z,88.84
2017-12-04T19:35:52.972Z,88.93
2017-12-04T19:38:18.803Z,89.21
2017-12-04T19:40:44.635Z,88.95
2017-12-04T19:43:10.452Z,88.94
2017-12-04T19:45:36.286Z,89.05
2017-12-04T19:48:02.080Z,89.16
2017-12-04T19:50:27.878Z,88.99
2017-12-04T19:52:54.023Z,89.43
2017-12-04T19:55:19.863Z,89.49
2017-12-04T19:57:45.718Z,89.85
2017-12-04T20:00:11.617Z,89.67
2017-12-04T20:02:37.447Z,89.83
2017-12-04T20:05:03.287Z,89.65
2017-12-04T20:10:07.158Z,89.78
2017-12-04T20:12:32.975Z,90.06
2017-12-04T20:14:58.774Z,90.65
2017-12-04T20:17:24.609Z,90.75
2017-12-04T20:19:50.410Z,91.22
2017-12-04T20:22:16.232Z,91.40
2017-12-04T20:24:42.070Z,91.30
2017-12-04T20:27:07.870Z,91.48
2017-12-04T20:29:33.680Z,91.82
2017-12-04T20:31:59.746Z,92.08
2017-12-04T20:34:25.552Z,92.19
2017-12-04T20:36:51.355Z,92.36
2017-12-04T20:39:17.186Z,92.62
2017-12-04T20:41:42.983Z,92.74
2017-12-04T20:44:08.771Z,92.80
2017-12-04T20:46:34.615Z,93.24
2017-12-04T20:49:00.406Z,93.02
2017-12-04T20:51:26.208Z,93.29
2017-12-04T20:53:52.034Z,93.59
2017-12-04T20:56:17.848Z,93.70
2017-12-04T20:58:43.684Z,93.95
2017-12-04T21:01:09.492Z,93.98
2017-12-04T21:03:35.374Z,94.29
2017-12-04T21:06:01.287Z,94.48
2017-12-04T21:08:39.577Z,94.70
2017-12-04T21:11:17.626Z,94.50
2017-12-04T21:13:55.727Z,94.64
2017-12-04T21:19:17.535Z,94.91
2017-12-04T21:21:43.327Z,94.88
2017-12-04T21:24:09.136Z,95.03
2017-12-04T21:26:34.948Z,94.98
2017-12-04T21:29:00.740Z,95.12
2017-12-04T21:31:26.545Z,95.14
2017-12-04T21:33:52.388Z,95.16
2017-12-04T21:36:18.178Z,95.25
2017-12-04T21:38:43.962Z,95.19
2017-12-04T21:41:09.796Z,95.25
2017-12-04T21:43:35.602Z,95.31
2017-12-04T21:46:01.412Z,95.23
2017-12-04T21:48:27.490Z,95.45
2017-12-04T21:50:53.295Z,95.71
2017-12-04T21:53:19.088Z,95.86
2017-12-04T21:55:44.930Z,95.79
2017-12-04T21:58:10.713Z,95.93
2017-12-04T22:00:36.519Z,96.17
2017-12-04T22:03:02.347Z,96.39
2017-12-04T22:05:28.142Z,96.50
2017-12-04T22:07:53.946Z,96.68
2017-12-04T22:10:19.791Z,96.71
2017-12-04T22:12:45.611Z,96.81
2017-12-04T22:15:11.429Z,96.92
2017-12-04T22:17:37.247Z,97.04
2017-12-04T22:20:03.052Z,97.11
2017-12-04T22:22:28.850Z,97.19
2017-12-04T22:24:54.765Z,97.32
2017-12-04T22:27:20.577Z,97.41
2017-12-04T22:29:46.388Z,97.58
2017-12-04T22:32:12.203Z,97.58
2017-12-04T22:34:38.001Z,97.66
2017-12-04T22:37:03.795Z,97.64
2017-12-04T22:39:29.598Z,97.74
2017-12-04T22:41:55.406Z,97.70
2017-12-04T22:44:21.215Z,97.72
2017-12-04T22:46:47.046Z,97.82
2017-12-04T22:49:12.856Z,97.88
2017-12-04T22:51:38.659Z,97.83
2017-12-04T22:54:04.592Z,97.94
2017-12-04T22:56:30.453Z,97.84
2017-12-04T22:58:56.319Z,97.88
2017-12-04T23:01:22.338Z,97.90
2017-12-04T23:03:48.173Z,98.07
2017-12-04T23:06:14.025Z,98.04
2017-12-04T23:08:39.847Z,98.10
2017-12-04T23:11:05.678Z,98.19
2017-12-04T23:13:31.471Z,98.13
2017-12-04T23:15:57.419Z,98.12
2017-12-04T23:18:23.238Z,98.07
2017-12-04T23:20:49.046Z,98.14
2017-12-04T23:23:14.894Z,98.18
2017-12-04T23:25:40.734Z,98.09
2017-12-04T23:28:06.526Z,98.12
2017-12-04T23:30:32.585Z,98.13
2017-12-04T23:32:58.410Z,98.23
2017-12-04T23:35:24.204Z,98.14
2017-12-04T23:37:50.064Z,98.19
2017-12-04T23:40:15.862Z,98.25
2017-12-04T23:42:41.676Z,98.34
2017-12-04T23:45:07.486Z,98.28
2017-12-04T23:47:33.277Z,98.31
2017-12-04T23:49:59.083Z,98.37
2017-12-04T23:52:24.902Z,98.34
2017-12-04T23:54:50.688Z,98.45
2017-12-04T23:57:16.459Z,98.52
2017-12-04T23:59:42.255Z,98.58
